createdAt,value
2022-08-25T00:00:20.418Z,2.78
2022-08-25T00:02:55.725Z,2.53
2022-08-25T00:05:27.760Z,3.10
2022-08-25T00:07:59.296Z,2.88
2022-08-25T00:10:27.060Z,3.40
2022-08-25T00:15:58.829Z,2.50
2022-08-25T00:18:46.195Z,2.60
2022-08-25T00:21:15.309Z,2.92
2022-08-25T00:23:45.717Z,2.78
2022-08-25T00:26:15.638Z,2.67
2022-08-25T00:28:44.956Z,2.67
2022-08-25T00:31:13.504Z,2.83
2022-08-25T00:33:42.164Z,3.13
2022-08-25T00:36:12.385Z,3.08
2022-08-25T00:38:40.283Z,3.03
2022-08-25T00:41:11.401Z,2.53
2022-08-25T00:43:47.519Z,3.30
2022-08-25T00:46:18.591Z,2.60
2022-08-25T00:48:53.027Z,2.53
2022-08-25T00:51:26.952Z,3.58
2022-08-25T00:53:54.954Z,2.35
2022-08-25T00:56:24.863Z,3.17
2022-08-25T00:58:52.775Z,2.95
2022-08-25T01:01:21.043Z,2.97
2022-08-25T01:03:48.991Z,3.10
2022-08-25T01:06:16.707Z,2.90
2022-08-25T01:11:13.139Z,2.55
2022-08-25T01:13:46.834Z,2.85
2022-08-25T01:16:16.799Z,3.30
2022-08-25T01:18:48.371Z,2.72
2022-08-25T01:21:20.281Z,2.83
2022-08-25T01:23:49.582Z,2.70
2022-08-25T01:26:21.140Z,3.25
2022-08-25T01:29:17.302Z,3.22
2022-08-25T01:31:45.128Z,3.20
2022-08-25T01:36:43.499Z,2.83
2022-08-25T01:39:12.149Z,3.10
2022-08-25T01:41:47.057Z,3.28
2022-08-25T01:44:17.298Z,2.47
2022-08-25T01:46:45.179Z,3.47
2022-08-25T01:49:12.896Z,2.65
2022-08-25T01:54:21.313Z,3.95
2022-08-25T01:56:53.340Z,2.50
2022-08-25T01:59:28.213Z,3.13
2022-08-25T02:02:11.666Z,3.08
2022-08-25T02:05:01.559Z,3.30
2022-08-25T02:07:37.771Z,2.88
2022-08-25T02:10:10.194Z,3.20
2022-08-25T02:12:49.701Z,3.72
2022-08-25T02:15:23.915Z,3.42
2022-08-25T02:17:52.955Z,3.50
2022-08-25T02:20:27.646Z,3.85
2022-08-25T02:23:01.337Z,3.45
2022-08-25T02:25:29.242Z,3.10
2022-08-25T02:27:59.102Z,2.90
2022-08-25T02:30:28.518Z,2.80
2022-08-25T02:32:58.581Z,3.10
2022-08-25T02:35:26.425Z,3.58
2022-08-25T02:40:33.718Z,3.63
2022-08-25T02:43:06.749Z,3.05
2022-08-25T02:45:40.015Z,3.03
2022-08-25T02:48:11.347Z,3.72
2022-08-25T02:50:47.565Z,2.50
2022-08-25T02:53:20.170Z,3.83
2022-08-25T02:56:01.890Z,4.22
2022-08-25T02:58:49.801Z,3.22
2022-08-25T03:01:22.206Z,2.78
2022-08-25T03:03:56.329Z,2.97
2022-08-25T03:06:24.926Z,3.60
2022-08-25T03:08:54.338Z,2.90
2022-08-25T03:11:28.148Z,3.00
2022-08-25T03:13:58.577Z,2.85
2022-08-25T03:16:34.421Z,2.92
2022-08-25T03:19:26.582Z,3.05
2022-08-25T03:21:56.307Z,3.10
2022-08-25T03:24:24.106Z,3.05
2022-08-25T03:29:24.338Z,3.30
2022-08-25T03:31:53.040Z,3.15
2022-08-25T03:34:21.661Z,3.97
2022-08-25T03:36:53.392Z,3.90
2022-08-25T03:39:23.444Z,3.35
2022-08-25T03:41:53.581Z,3.55
2022-08-25T03:44:22.402Z,3.35
2022-08-25T03:46:52.610Z,4.03
2022-08-25T03:49:23.719Z,3.85
2022-08-25T03:51:53.843Z,3.35
2022-08-25T03:54:23.635Z,3.50
2022-08-25T03:56:51.570Z,3.28
2022-08-25T03:59:20.769Z,3.42
2022-08-25T04:01:52.778Z,3.30
2022-08-25T04:04:22.691Z,3.55
2022-08-25T04:06:50.801Z,3.58
2022-08-25T04:09:18.609Z,3.15
2022-08-25T04:14:16.959Z,3.75
2022-08-25T04:16:46.670Z,4.13
2022-08-25T04:19:14.756Z,4.00
2022-08-25T04:21:43.040Z,3.80
2022-08-25T04:24:12.711Z,3.70
2022-08-25T04:26:42.693Z,3.90
2022-08-25T04:29:12.188Z,3.78
2022-08-25T04:31:41.700Z,3.90
2022-08-25T04:34:28.500Z,4.18
2022-08-25T04:36:57.921Z,4.27
2022-08-25T04:41:53.344Z,4.78
2022-08-25T04:46:49.665Z,4.18
2022-08-25T04:49:18.878Z,3.78
2022-08-25T04:51:46.993Z,4.22
2022-08-25T04:54:21.509Z,4.05
2022-08-25T04:56:50.244Z,4.28
2022-08-25T04:59:22.521Z,5.30
2022-08-25T05:04:27.881Z,5.05
2022-08-25T05:06:56.395Z,5.82
2022-08-25T05:09:25.087Z,4.35
2022-08-25T05:11:52.979Z,5.00
2022-08-25T05:14:23.199Z,5.07
2022-08-25T05:16:55.399Z,4.97
2022-08-25T05:19:26.207Z,5.05
2022-08-25T05:21:54.132Z,5.30
2022-08-25T05:25:46.142Z,7.85
2022-08-25T05:28:15.453Z,5.22
2022-08-25T05:30:44.987Z,5.70
2022-08-25T05:33:13.586Z,4.93
2022-08-25T05:35:41.422Z,6.35
2022-08-25T05:40:43.515Z,4.57
2022-08-25T05:45:41.568Z,4.95
2022-08-25T05:48:09.344Z,5.65
2022-08-25T05:50:36.971Z,5.25
2022-08-25T05:53:04.961Z,5.00
2022-08-25T05:55:32.701Z,4.97
2022-08-25T05:58:00.803Z,5.07
2022-08-25T06:00:28.514Z,4.72
2022-08-25T06:05:24.835Z,6.05
2022-08-25T06:10:22.034Z,5.20
2022-08-25T06:12:50.254Z,5.30
2022-08-25T06:15:21.257Z,5.40
2022-08-25T06:17:49.874Z,5.15
2022-08-25T06:20:22.165Z,5.97
2022-08-25T06:22:54.101Z,5.15
2022-08-25T06:25:24.201Z,5.10
2022-08-25T06:27:52.313Z,5.20
2022-08-25T06:30:24.623Z,5.50
2022-08-25T06:32:56.935Z,4.70
2022-08-25T06:35:26.054Z,5.07
2022-08-25T06:37:54.273Z,4.70
2022-08-25T06:40:23.008Z,4.65
2022-08-25T06:42:50.676Z,4.90
2022-08-25T06:45:18.897Z,5.32
2022-08-25T06:47:46.605Z,5.28
2022-08-25T06:52:43.329Z,4.45
2022-08-25T06:55:12.149Z,4.93
2022-08-25T06:57:39.845Z,4.70
2022-08-25T07:02:35.810Z,5.63
2022-08-25T07:05:04.703Z,4.53
2022-08-25T07:07:43.729Z,4.65
2022-08-25T07:10:13.901Z,4.60
2022-08-25T07:12:47.119Z,5.05
2022-08-25T07:17:49.331Z,4.60
2022-08-25T07:20:19.384Z,4.22
2022-08-25T07:22:47.462Z,4.38
2022-08-25T07:25:17.838Z,4.07
2022-08-25T07:27:46.177Z,4.32
2022-08-25T07:30:14.186Z,5.00
2022-08-25T07:35:37.491Z,4.38
2022-08-25T07:38:07.034Z,3.72
2022-08-25T07:40:42.788Z,4.07
2022-08-25T07:43:10.646Z,4.22
2022-08-25T07:45:41.143Z,3.47
2022-08-25T07:48:19.779Z,3.70
2022-08-25T07:50:49.379Z,3.67
2022-08-25T07:53:18.101Z,3.65
2022-08-25T07:55:47.373Z,4.15
2022-08-25T07:58:15.309Z,4.25
2022-08-25T08:00:43.315Z,3.90
2022-08-25T08:03:19.953Z,3.78
2022-08-25T08:05:59.745Z,4.13
2022-08-25T08:08:27.862Z,3.80
2022-08-25T08:11:05.399Z,4.13
2022-08-25T08:13:36.681Z,4.43
2022-08-25T08:16:10.288Z,4.80
2022-08-25T08:18:39.497Z,4.00
2022-08-25T08:21:12.710Z,3.85
2022-08-25T08:23:40.615Z,3.97
2022-08-25T08:26:10.241Z,3.85
2022-08-25T08:28:38.156Z,4.53
2022-08-25T08:31:06.070Z,4.43
2022-08-25T08:33:40.862Z,3.85
2022-08-25T08:36:12.449Z,3.85
2022-08-25T08:38:42.687Z,3.72
2022-08-25T08:42:09.626Z,3.85
2022-08-25T08:44:44.111Z,4.07
2022-08-25T08:47:19.767Z,4.45
2022-08-25T08:49:58.358Z,3.80
2022-08-25T08:52:36.646Z,3.60
2022-08-25T08:55:11.459Z,4.07
2022-08-25T09:00:20.074Z,4.25
2022-08-25T09:02:52.426Z,4.38
2022-08-25T09:05:22.519Z,3.70
2022-08-25T09:07:56.083Z,3.72
2022-08-25T09:10:27.286Z,3.80
2022-08-25T09:13:05.853Z,3.50
2022-08-25T09:16:07.962Z,3.38
2022-08-25T09:21:28.699Z,3.80
2022-08-25T09:24:16.583Z,3.33
2022-08-25T09:26:54.791Z,3.40
2022-08-25T09:29:30.700Z,3.40
2022-08-25T09:32:01.312Z,3.83
2022-08-25T09:34:35.027Z,4.10
2022-08-25T09:37:03.037Z,3.42
2022-08-25T09:39:30.647Z,3.67
2022-08-25T09:42:00.964Z,3.83
2022-08-25T09:44:33.710Z,3.63
2022-08-25T09:47:05.190Z,3.47
2022-08-25T09:49:37.619Z,3.50
2022-08-25T09:52:34.707Z,3.60
2022-08-25T09:55:28.818Z,3.58
2022-08-25T09:58:00.629Z,4.40
2022-08-25T10:00:33.436Z,4.00
2022-08-25T10:03:22.447Z,3.53
2022-08-25T10:06:02.759Z,3.72
2022-08-25T10:08:35.270Z,3.67
2022-08-25T10:11:08.897Z,3.50
2022-08-25T10:13:40.999Z,3.72
2022-08-25T10:16:20.130Z,3.50
2022-08-25T10:19:03.416Z,3.78
2022-08-25T10:21:31.410Z,3.95
2022-08-25T10:24:01.667Z,3.92
2022-08-25T10:26:35.445Z,4.40
2022-08-25T10:29:15.763Z,3.88
2022-08-25T10:31:51.996Z,4.40
2022-08-25T10:34:36.014Z,4.22
2022-08-25T10:37:16.330Z,3.78
2022-08-25T10:40:00.989Z,3.78
2022-08-25T10:42:37.117Z,3.97
2022-08-25T10:48:49.751Z,3.45
2022-08-25T10:51:52.578Z,3.40
2022-08-25T10:54:32.878Z,3.88
2022-08-25T10:57:13.685Z,3.80
2022-08-25T10:59:52.093Z,4.20
2022-08-25T11:03:01.061Z,4.10
2022-08-25T11:05:33.287Z,4.28
2022-08-25T11:08:09.429Z,3.80
2022-08-25T11:10:46.139Z,4.57
2022-08-25T11:13:23.551Z,4.57
2022-08-25T11:16:16.565Z,4.40
2022-08-25T11:18:55.305Z,4.57
2022-08-25T11:21:28.230Z,4.35
2022-08-25T11:24:05.612Z,4.40
2022-08-25T11:26:38.215Z,4.18
2022-08-25T11:29:14.322Z,4.18
2022-08-25T11:31:52.153Z,4.75
2022-08-25T11:34:22.743Z,4.00
2022-08-25T11:36:55.968Z,4.35
2022-08-25T11:39:40.464Z,4.30
2022-08-25T11:42:22.060Z,4.30
2022-08-25T11:45:01.703Z,4.53
2022-08-25T11:47:41.298Z,3.95
2022-08-25T11:50:25.819Z,4.55
2022-08-25T11:52:56.261Z,3.90
2022-08-25T11:55:33.534Z,3.83
2022-08-25T11:58:32.538Z,4.68
2022-08-25T12:01:02.044Z,4.45
2022-08-25T12:03:54.277Z,5.25
2022-08-25T12:06:26.781Z,3.90
2022-08-25T12:09:12.698Z,4.03
2022-08-25T12:11:47.833Z,3.72
2022-08-25T12:14:35.118Z,3.85
2022-08-25T12:17:17.431Z,4.18
2022-08-25T12:19:52.239Z,3.70
2022-08-25T12:22:51.492Z,4.05
2022-08-25T12:25:38.970Z,4.05
2022-08-25T12:28:20.185Z,3.70
2022-08-25T12:30:57.969Z,3.75
2022-08-25T12:33:42.801Z,3.75
2022-08-25T12:36:26.639Z,3.63
2022-08-25T12:38:54.788Z,3.75
2022-08-25T12:41:25.271Z,3.55
2022-08-25T12:44:09.845Z,3.55
2022-08-25T12:46:40.463Z,4.25
2022-08-25T12:49:32.175Z,4.22
2022-08-25T12:52:03.546Z,3.92
2022-08-25T12:54:43.496Z,4.30
2022-08-25T12:57:40.286Z,4.47
2022-08-25T13:00:18.390Z,3.97
2022-08-25T13:03:28.424Z,4.05
2022-08-25T13:06:32.947Z,4.10
2022-08-25T13:09:26.656Z,4.13
2022-08-25T13:12:01.770Z,4.00
2022-08-25T13:14:38.481Z,4.20
2022-08-25T13:17:09.568Z,4.35
2022-08-25T13:19:38.324Z,4.30
2022-08-25T13:22:16.423Z,4.13
2022-08-25T13:24:47.560Z,3.63
2022-08-25T13:27:23.099Z,4.53
2022-08-25T13:29:53.743Z,3.58
2022-08-25T13:32:31.939Z,4.90
2022-08-25T13:35:15.466Z,3.65
2022-08-25T13:37:45.578Z,3.80
2022-08-25T13:40:17.569Z,3.92
2022-08-25T13:42:54.448Z,3.33
2022-08-25T13:45:26.732Z,4.30
2022-08-25T13:47:56.310Z,4.30
2022-08-25T13:50:33.807Z,3.70
2022-08-25T13:53:03.743Z,3.85
2022-08-25T13:55:51.216Z,3.50
2022-08-25T13:58:24.203Z,3.38
2022-08-25T14:01:22.331Z,3.75
2022-08-25T14:04:18.695Z,3.95
2022-08-25T14:06:48.026Z,3.88
2022-08-25T14:09:18.220Z,4.10
2022-08-25T14:11:58.253Z,3.58
2022-08-25T14:14:34.949Z,3.47
2022-08-25T14:17:21.857Z,4.10
2022-08-25T14:19:56.363Z,3.58
2022-08-25T14:22:24.370Z,3.90
2022-08-25T14:24:54.076Z,3.63
2022-08-25T14:27:21.902Z,3.80
2022-08-25T14:29:52.818Z,4.28
2022-08-25T14:32:20.714Z,3.88
2022-08-25T14:34:48.628Z,3.30
2022-08-25T14:37:20.862Z,3.70
2022-08-25T14:39:54.621Z,4.22
2022-08-25T14:42:22.669Z,3.85
2022-08-25T14:44:53.277Z,4.05
2022-08-25T14:47:21.282Z,4.03
2022-08-25T14:49:51.892Z,3.63
2022-08-25T14:52:26.601Z,4.05
2022-08-25T14:54:54.411Z,3.63
2022-08-25T14:57:22.126Z,3.70
2022-08-25T14:59:51.836Z,3.88
2022-08-25T15:02:22.767Z,3.75
2022-08-25T15:05:00.455Z,3.67
2022-08-25T15:07:49.977Z,3.70
2022-08-25T15:10:17.877Z,3.75
2022-08-25T15:12:51.115Z,3.55
2022-08-25T15:15:21.778Z,3.78
2022-08-25T15:17:50.457Z,3.97
2022-08-25T15:20:18.322Z,3.80
2022-08-25T15:22:48.672Z,4.35
2022-08-25T15:25:16.754Z,3.63
2022-08-25T15:27:45.452Z,3.28
2022-08-25T15:30:14.871Z,3.90
2022-08-25T15:32:42.979Z,3.40
2022-08-25T15:35:11.194Z,3.60
2022-08-25T15:37:42.994Z,4.15
2022-08-25T15:40:12.649Z,4.05
2022-08-25T15:42:42.947Z,4.32
2022-08-25T15:45:14.360Z,4.20
2022-08-25T15:47:42.247Z,3.70
2022-08-25T15:50:14.566Z,4.15
2022-08-25T15:52:47.569Z,3.90
2022-08-25T15:55:19.808Z,4.47
2022-08-25T15:57:47.999Z,3.70
2022-08-25T16:00:18.898Z,3.78
2022-08-25T16:02:46.947Z,4.53
2022-08-25T16:05:16.252Z,3.55
2022-08-25T16:07:45.916Z,4.28
2022-08-25T16:10:14.137Z,3.78
2022-08-25T16:12:43.153Z,4.20
2022-08-25T16:15:12.189Z,3.50
2022-08-25T16:17:40.574Z,3.78
2022-08-25T16:20:13.782Z,4.18
2022-08-25T16:22:41.832Z,3.63
2022-08-25T16:25:11.508Z,3.90
2022-08-25T16:27:39.287Z,3.95
2022-08-25T16:30:11.755Z,4.50
2022-08-25T16:32:41.733Z,4.13
2022-08-25T16:35:11.223Z,3.58
2022-08-25T16:37:39.054Z,4.47
2022-08-25T16:40:10.326Z,4.90
2022-08-25T16:42:38.376Z,4.53
2022-08-25T16:45:08.487Z,4.82
2022-08-25T16:47:38.255Z,4.93
2022-08-25T16:50:10.907Z,4.70
2022-08-25T16:52:56.526Z,5.20
2022-08-25T16:55:26.632Z,4.55
2022-08-25T16:57:54.730Z,4.55
2022-08-25T17:00:28.227Z,4.53
2022-08-25T17:02:59.187Z,4.47
2022-08-25T17:05:28.276Z,4.65
2022-08-25T17:08:13.888Z,4.57
2022-08-25T17:10:43.913Z,4.63
2022-08-25T17:13:12.786Z,4.50
2022-08-25T17:15:46.764Z,4.15
2022-08-25T17:18:14.865Z,4.72
2022-08-25T17:20:44.555Z,4.95
2022-08-25T17:23:13.161Z,4.43
2022-08-25T17:25:42.924Z,5.07
2022-08-25T17:28:11.915Z,5.03
2022-08-25T17:30:40.189Z,5.03
2022-08-25T17:33:09.278Z,5.28
2022-08-25T17:35:40.309Z,4.60
2022-08-25T17:38:08.715Z,4.35
2022-08-25T17:40:37.401Z,4.72
2022-08-25T17:43:05.848Z,4.55
2022-08-25T17:45:37.363Z,4.47
2022-08-25T17:48:13.983Z,4.97
2022-08-25T17:50:43.171Z,5.10
2022-08-25T17:53:11.491Z,5.30
2022-08-25T17:55:42.314Z,5.35
2022-08-25T17:58:13.304Z,4.80
2022-08-25T18:00:43.745Z,6.35
2022-08-25T18:03:12.026Z,5.03
2022-08-25T18:05:39.830Z,5.28
2022-08-25T18:08:10.599Z,5.68
2022-08-25T18:10:39.302Z,5.45
2022-08-25T18:13:07.068Z,5.45
2022-08-25T18:15:39.079Z,4.78
2022-08-25T18:18:10.978Z,5.47
2022-08-25T18:20:41.105Z,5.38
2022-08-25T18:23:12.813Z,4.93
2022-08-25T18:25:41.738Z,4.97
2022-08-25T18:28:09.867Z,4.70
2022-08-25T18:30:37.832Z,5.00
2022-08-25T18:33:06.209Z,4.93
2022-08-25T18:35:33.973Z,4.80
2022-08-25T18:38:19.079Z,6.07
2022-08-25T18:44:27.913Z,5.38
2022-08-25T18:46:56.589Z,5.07
2022-08-25T18:49:26.699Z,5.78
2022-08-25T18:51:56.546Z,5.97
2022-08-25T18:54:24.262Z,4.88
2022-08-25T18:56:54.614Z,5.78
2022-08-25T18:59:23.677Z,5.72
2022-08-25T19:01:52.724Z,5.53
2022-08-25T19:04:20.801Z,5.97
2022-08-25T19:06:56.041Z,5.80
2022-08-25T19:09:23.820Z,5.57
2022-08-25T19:11:54.659Z,4.85
2022-08-25T19:14:22.553Z,5.97
2022-08-25T19:16:51.752Z,6.20
2022-08-25T19:19:21.165Z,5.72
2022-08-25T19:21:48.874Z,6.70
2022-08-25T19:24:19.289Z,5.43
2022-08-25T19:26:49.593Z,5.85
2022-08-25T19:29:21.906Z,5.70
2022-08-25T19:31:50.417Z,5.40
2022-08-25T19:34:25.333Z,4.82
2022-08-25T19:36:57.647Z,5.35
2022-08-25T19:39:26.359Z,5.15
2022-08-25T19:41:54.271Z,5.15
2022-08-25T19:44:24.175Z,5.28
2022-08-25T19:46:51.982Z,5.30
2022-08-25T19:49:23.299Z,4.70
2022-08-25T19:51:53.488Z,5.55
2022-08-25T19:54:24.649Z,5.28
2022-08-25T19:56:54.693Z,4.70
2022-08-25T19:59:26.820Z,5.53
2022-08-25T20:02:10.853Z,4.88
2022-08-25T20:04:38.762Z,5.20
2022-08-25T20:07:07.771Z,5.13
2022-08-25T20:09:40.916Z,4.68
2022-08-25T20:12:11.684Z,4.78
2022-08-25T20:14:41.430Z,5.00
2022-08-25T20:17:23.987Z,5.50
2022-08-25T20:19:55.438Z,5.05
2022-08-25T20:22:26.224Z,4.80
2022-08-25T20:24:56.115Z,4.90
2022-08-25T20:27:27.966Z,4.88
2022-08-25T20:29:57.075Z,4.60
2022-08-25T20:32:25.184Z,5.10
2022-08-25T20:34:55.832Z,4.85
2022-08-25T20:37:24.021Z,5.78
2022-08-25T20:39:52.568Z,5.55
2022-08-25T20:42:20.527Z,5.20
2022-08-25T20:44:48.441Z,5.25
2022-08-25T20:47:20.516Z,6.60
2022-08-25T20:49:48.934Z,5.65
2022-08-25T20:52:18.578Z,5.00
2022-08-25T20:54:49.481Z,4.68
2022-08-25T20:57:24.313Z,5.15
2022-08-25T20:59:54.410Z,4.40
2022-08-25T21:02:24.150Z,5.03
2022-08-25T21:04:52.424Z,5.22
2022-08-25T21:07:20.474Z,5.15
2022-08-25T21:09:48.945Z,5.22
2022-08-25T21:12:17.056Z,5.03
2022-08-25T21:14:44.872Z,5.25
2022-08-25T21:17:12.910Z,4.75
2022-08-25T21:19:43.068Z,7.18
2022-08-25T21:22:11.032Z,5.03
2022-08-25T21:24:39.409Z,5.50
2022-08-25T21:27:07.125Z,4.53
2022-08-25T21:29:35.231Z,5.13
2022-08-25T21:32:03.974Z,5.25
2022-08-25T21:34:32.147Z,5.20
2022-08-25T21:37:01.248Z,5.43
2022-08-25T21:39:31.925Z,4.57
2022-08-25T21:42:00.563Z,5.03
2022-08-25T21:44:29.801Z,5.45
2022-08-25T21:46:57.707Z,5.32
2022-08-25T21:49:26.158Z,5.72
2022-08-25T21:52:04.358Z,4.97
2022-08-25T21:54:33.541Z,5.75
2022-08-25T21:57:03.626Z,5.75
2022-08-25T21:59:33.461Z,6.38
2022-08-25T22:02:03.236Z,5.88
2022-08-25T22:04:32.203Z,5.55
2022-08-25T22:07:00.204Z,6.20
2022-08-25T22:09:28.617Z,6.22
2022-08-25T22:11:58.718Z,5.65
2022-08-25T22:14:27.926Z,6.85
2022-08-25T22:16:56.019Z,5.35
2022-08-25T22:19:24.665Z,5.93
2022-08-25T22:21:53.158Z,5.60
2022-08-25T22:24:22.085Z,5.55
2022-08-25T22:26:50.187Z,6.03
2022-08-25T22:29:24.680Z,5.60
2022-08-25T22:31:53.503Z,7.05
2022-08-25T22:34:31.622Z,7.05
2022-08-25T22:37:00.127Z,6.65
2022-08-25T22:39:28.255Z,5.22
2022-08-25T22:41:56.297Z,5.93
2022-08-25T22:44:25.668Z,6.38
2022-08-25T22:46:54.069Z,6.65
2022-08-25T22:49:22.490Z,5.82
2022-08-25T22:51:50.886Z,5.90
2022-08-25T22:54:18.900Z,6.07
2022-08-25T22:56:46.520Z,5.30
2022-08-25T22:59:15.369Z,6.10
2022-08-25T23:01:46.143Z,6.57
2022-08-25T23:04:14.848Z,6.03
2022-08-25T23:06:45.667Z,5.70
2022-08-25T23:09:14.972Z,5.10
2022-08-25T23:11:43.277Z,5.82
2022-08-25T23:14:12.189Z,5.82
2022-08-25T23:16:42.093Z,6.05
2022-08-25T23:19:13.735Z,5.78
2022-08-25T23:22:00.137Z,6.85
2022-08-25T23:24:29.744Z,7.70
2022-08-25T23:26:58.851Z,7.43
2022-08-25T23:29:27.535Z,7.13
2022-08-25T23:31:55.496Z,6.88
2022-08-25T23:34:25.700Z,6.13
2022-08-25T23:36:54.185Z,6.03
2022-08-25T23:39:22.181Z,7.07
2022-08-25T23:41:50.609Z,6.20
2022-08-25T23:44:18.810Z,6.95
2022-08-25T23:46:47.671Z,6.68
2022-08-25T23:49:18.672Z,6.82
2022-08-25T23:51:50.113Z,6.57
2022-08-25T23:54:21.477Z,6.57
2022-08-25T23:56:51.686Z,6.40
2022-08-25T23:59:20.482Z,6.28
